Reads Landing, Minnesota
Current Conditions -  °F | °C
As of 12:11 PM on Sunday 25 Jan 2015 (Local Time) from KRGK Reporting Station
Overcast Overcast  
Wind Chill: 25°   Ceiling: 2300
Heat Index: 25°   Visibility: 10mi
Dew Point: 12°   Wind: 3mph
Humidity: 59%   Direction: 90°E
Pressure: 30.02"   Gusts: NA
Location:  44.4°N, 92.08°W
Report Text: KRGK 251811Z AUTO 09003KT 10SM OVC023 M04/M11 A3002 RMK AO2
Loading
Personal Weather Stations






























Interactive Weather Map New forecast layout! Learn more

10-Day Weather Forecast

Advertisements
Track Severe Weather on mobile